Time;durP1;ratioP1;P1;durP2;ratioP2;P2;SDS_P1;SDS_P2;PMS_P1;PMS_P2;Temp;Humidity;BMP_temperature;BMP_pressure;BME280_temperature;BME280_humidity;BME280_pressure;Samples;Min_cycle;Max_cycle;Signal;HPM_P1;HPM_P2
2022/07/13 00:01:44;;;;;;;1.92;1.00;;;;;;;14.28;82.12;96867.66;1685950;83;20970;-83
2022/07/13 00:04:09;;;;;;;2.58;1.20;;;;;;;14.30;82.17;96868.27;1697471;83;20976;-83
2022/07/13 00:06:35;;;;;;;1.45;0.98;;;;;;;14.31;81.69;96864.65;1697572;83;21436;-83
2022/07/13 00:09:01;;;;;;;1.87;1.10;;;;;;;14.32;82.04;96861.06;1694671;83;20972;-83
2022/07/13 00:11:27;;;;;;;2.83;1.30;;;;;;;14.32;81.65;96861.06;1681126;83;21069;-83
2022/07/13 00:13:53;;;;;;;4.00;1.35;;;;;;;14.29;81.83;96854.09;1677922;83;21100;-83
2022/07/13 00:16:18;;;;;;;3.30;1.00;;;;;;;14.26;81.90;96859.70;1697729;84;20940;-84
2022/07/13 00:18:44;;;;;;;2.12;1.10;;;;;;;14.27;82.24;96858.70;1697709;84;21031;-83
2022/07/13 00:21:10;;;;;;;4.10;1.42;;;;;;;14.28;81.27;96852.47;1691664;83;20975;-83
2022/07/13 00:23:35;;;;;;;3.05;1.30;;;;;;;14.32;80.79;96853.72;1675083;84;21044;-83
2022/07/13 00:26:01;;;;;;;3.08;1.55;;;;;;;14.36;80.12;96851.83;1690586;83;21122;-82
2022/07/13 00:28:27;;;;;;;3.60;1.37;;;;;;;14.36;81.13;96851.83;1650156;85;20938;-82
2022/07/13 00:30:53;;;;;;;2.45;1.25;;;;;;;14.36;81.08;96849.22;1681371;83;20965;-82
2022/07/13 00:33:18;;;;;;;2.30;1.10;;;;;;;14.38;81.23;96856.86;1695134;83;21334;-82
2022/07/13 00:35:45;;;;;;;2.00;1.12;;;;;;;14.42;80.15;96856.27;1678749;84;21012;-82
2022/07/13 00:38:10;;;;;;;1.90;1.30;;;;;;;14.45;77.57;96855.10;1679941;83;21490;-82
2022/07/13 00:40:36;;;;;;;2.85;1.20;;;;;;;14.55;77.70;96854.25;1689156;83;21026;-82
2022/07/13 00:43:02;;;;;;;2.20;1.30;;;;;;;14.60;78.07;96853.16;1669682;84;20991;-84
2022/07/13 00:45:27;;;;;;;2.83;1.27;;;;;;;14.59;78.07;96846.81;1675028;83;21448;-83
2022/07/13 00:47:53;;;;;;;2.30;1.30;;;;;;;14.63;77.20;96851.95;1697306;83;21035;-82
2022/07/13 00:50:19;;;;;;;2.02;1.40;;;;;;;14.66;76.29;96850.28;1683558;83;20982;-83
2022/07/13 00:52:45;;;;;;;3.08;1.15;;;;;;;14.69;75.43;96858.54;1680372;83;21385;-83
2022/07/13 00:55:10;;;;;;;3.60;1.10;;;;;;;14.76;74.10;96859.05;1697891;83;21011;-82
2022/07/13 00:57:37;;;;;;;1.90;0.98;;;;;;;14.84;74.50;96857.08;1689986;83;20971;-83
2022/07/13 01:00:10;;;;;;;2.35;1.40;;;;;;;14.89;74.13;96858.59;1686270;83;20987;-82
2022/07/13 01:02:40;;;;;;;2.72;1.20;;;;;;;14.91;75.08;96858.40;1677370;84;20956;-82
2022/07/13 01:05:07;;;;;;;1.67;1.25;;;;;;;14.87;75.12;96857.99;1668353;84;21509;-84
2022/07/13 01:07:33;;;;;;;4.15;1.65;;;;;;;14.84;75.75;96859.70;1693604;84;20987;-83
2022/07/13 01:10:00;;;;;;;3.37;1.20;;;;;;;14.80;74.94;96853.73;1667667;83;21031;-83
2022/07/13 01:12:29;;;;;;;2.55;1.22;;;;;;;14.78;76.01;96850.00;1689809;84;20991;-83
2022/07/13 01:14:57;;;;;;;2.90;0.93;;;;;;;14.71;76.21;96851.80;1687056;83;21042;-83
2022/07/13 01:17:23;;;;;;;3.17;1.45;;;;;;;14.71;76.55;96857.03;1689502;84;21075;-83
2022/07/13 01:19:49;;;;;;;3.58;1.40;;;;;;;14.66;76.36;96850.28;1694939;83;21410;-83
2022/07/13 01:22:22;;;;;;;2.47;1.17;;;;;;;14.61;76.04;96857.38;1683715;84;21082;-84
2022/07/13 01:24:48;;;;;;;2.92;1.20;;;;;;;14.57;77.44;96860.09;1689720;83;21455;-83
2022/07/13 01:27:15;;;;;;;1.90;1.15;;;;;;;14.52;76.83;96863.00;1680776;83;21105;-83
2022/07/13 01:29:41;;;;;;;1.52;1.12;;;;;;;14.48;76.19;96866.98;1721855;83;21031;-83
2022/07/13 01:32:07;;;;;;;2.72;1.30;;;;;;;14.46;77.08;96860.64;1678137;82;21063;-82
2022/07/13 01:34:33;;;;;;;2.92;1.32;;;;;;;14.48;77.63;96863.05;1687382;84;21034;-83
2022/07/13 01:36:59;;;;;;;2.77;1.32;;;;;;;14.47;78.09;96866.67;1692546;83;21011;-83
2022/07/13 01:39:25;;;;;;;2.10;1.10;;;;;;;14.47;78.00;96863.55;1680236;83;21325;-84
2022/07/13 01:41:50;;;;;;;2.70;1.52;;;;;;;14.46;77.16;96862.45;1693118;84;20955;-84
2022/07/13 01:44:16;;;;;;;1.90;1.20;;;;;;;14.45;77.18;96860.83;1688316;83;20956;-83
2022/07/13 01:46:42;;;;;;;3.10;1.32;;;;;;;14.44;77.51;96860.53;1687982;83;20927;-83
2022/07/13 01:49:08;;;;;;;2.83;1.72;;;;;;;14.42;77.60;96856.77;1696891;83;20998;-82
2022/07/13 01:51:34;;;;;;;2.70;1.22;;;;;;;14.41;77.79;96860.39;1654762;86;20951;-82
2022/07/13 01:54:00;;;;;;;3.98;1.50;;;;;;;14.37;78.22;96856.05;1639316;85;21079;-83
2022/07/13 01:56:26;;;;;;;2.47;1.10;;;;;;;14.37;78.52;96861.78;1663217;85;20968;-83
2022/07/13 01:58:52;;;;;;;2.72;1.20;;;;;;;14.39;78.19;96859.78;1641220;85;21361;-85
2022/07/13 02:01:18;;;;;;;2.12;1.20;;;;;;;14.42;76.77;96859.39;1645863;84;21002;-83
2022/07/13 02:03:44;;;;;;;3.02;1.30;;;;;;;14.48;76.21;96855.21;1649780;85;21011;-84
2022/07/13 02:06:10;;;;;;;3.80;1.32;;;;;;;14.51;75.27;96862.19;1640757;85;21393;-84
2022/07/13 02:08:36;;;;;;;1.55;1.10;;;;;;;14.56;74.73;96858.48;1642735;86;21053;-83
2022/07/13 02:11:01;;;;;;;2.72;1.30;;;;;;;14.61;74.03;96857.38;1639245;86;20935;-83
2022/07/13 02:13:27;;;;;;;3.20;1.32;;;;;;;14.65;74.16;96857.33;1643576;85;20993;-83
2022/07/13 02:15:53;;;;;;;2.90;1.35;;;;;;;14.65;76.64;96865.67;1631117;87;21041;-83
2022/07/13 02:18:18;;;;;;;1.70;1.05;;;;;;;14.64;74.58;96860.11;1679682;84;20956;-83
2022/07/13 02:20:44;;;;;;;4.08;1.27;;;;;;;14.65;73.78;96861.25;1704583;83;20926;-83
2022/07/13 02:23:10;;;;;;;5.15;1.60;;;;;;;14.71;74.55;96863.07;1713720;82;21101;-83
2022/07/13 02:25:37;;;;;;;2.77;1.12;;;;;;;14.73;74.18;96855.02;1675175;84;21442;-83
2022/07/13 02:28:04;;;;;;;3.05;1.40;;;;;;;14.74;73.83;96864.48;1665323;83;21030;-84
2022/07/13 02:30:30;;;;;;;3.75;1.25;;;;;;;14.74;73.48;96859.25;1690859;84;21016;-83
2022/07/13 02:32:56;;;;;;;2.77;1.30;;;;;;;14.75;73.25;96853.02;1678170;84;20992;-83
2022/07/13 02:35:22;;;;;;;3.37;1.60;;;;;;;14.76;72.45;96854.63;1702621;84;21010;-83
2022/07/13 02:37:47;;;;;;;3.08;1.40;;;;;;;14.78;73.32;96857.05;1693532;83;20992;-83
2022/07/13 02:40:14;;;;;;;3.35;1.40;;;;;;;14.75;73.61;96862.17;1688788;83;21075;-84
2022/07/13 02:42:40;;;;;;;2.25;1.40;;;;;;;14.72;72.43;96859.95;1681340;84;21027;-83
2022/07/13 02:45:07;;;;;;;3.95;1.30;;;;;;;14.73;72.38;96853.72;1675398;83;21397;-83
2022/07/13 02:47:32;;;;;;;3.90;1.45;;;;;;;14.75;72.52;96868.71;1685437;83;20976;-83
2022/07/13 02:49:58;;;;;;;3.33;1.40;;;;;;;14.76;72.34;96859.05;1699739;83;21310;-83
2022/07/13 02:52:24;;;;;;;3.47;1.50;;;;;;;14.77;72.48;96865.39;1680895;83;21004;-83
2022/07/13 02:54:49;;;;;;;3.40;1.70;;;;;;;14.76;72.62;96866.40;1686612;84;21015;-84
2022/07/13 02:57:15;;;;;;;2.12;1.47;;;;;;;14.76;72.66;96870.32;1703171;83;21372;-84
2022/07/13 02:59:41;;;;;;;3.05;1.32;;;;;;;14.76;72.63;96858.55;1683954;83;21029;-83
2022/07/13 03:02:07;;;;;;;2.95;1.25;;;;;;;14.76;72.58;96860.36;1686551;84;21007;-83
2022/07/13 03:04:33;;;;;;;3.15;1.20;;;;;;;14.76;72.24;96866.40;1692134;83;21476;-82
2022/07/13 03:06:59;;;;;;;2.75;1.30;;;;;;;14.79;72.15;96859.96;1682785;83;21035;-82
2022/07/13 03:09:25;;;;;;;4.67;1.60;;;;;;;14.82;72.34;96866.94;1685909;83;21376;-84
2022/07/13 03:11:51;;;;;;;3.83;1.10;;;;;;;14.85;72.45;96863.13;1716917;82;20958;-84
2022/07/13 03:14:17;;;;;;;2.42;1.02;;;;;;;14.86;72.19;96866.84;1697035;84;21034;-83
2022/07/13 03:16:43;;;;;;;2.42;1.07;;;;;;;14.88;72.15;96864.03;1667803;83;21006;-84
2022/07/13 03:19:09;;;;;;;1.60;1.02;;;;;;;14.90;72.59;96863.33;1689647;83;21044;-84
2022/07/13 03:21:35;;;;;;;2.00;1.50;;;;;;;14.90;72.28;96860.21;1642562;84;21028;-82
2022/07/13 03:24:01;;;;;;;3.80;1.55;;;;;;;14.91;72.55;96866.25;1669506;84;21027;-83
2022/07/13 03:26:27;;;;;;;1.52;1.17;;;;;;;14.93;72.42;96866.86;1697863;83;21023;-83
2022/07/13 03:28:52;;;;;;;2.33;1.30;;;;;;;14.96;72.43;96873.00;1693507;83;21000;-83
2022/07/13 03:31:18;;;;;;;1.67;1.10;;;;;;;14.99;72.45;96870.02;1669649;84;21002;-83
2022/07/13 03:33:44;;;;;;;2.83;1.35;;;;;;;15.01;72.18;96871.42;1678384;84;21005;-83
2022/07/13 03:36:10;;;;;;;2.17;1.42;;;;;;;15.03;72.17;96867.30;1697725;83;21315;-83
2022/07/13 03:38:36;;;;;;;2.80;1.50;;;;;;;15.05;72.28;96868.41;1687791;83;21069;-84
2022/07/13 03:41:02;;;;;;;1.95;0.93;;;;;;;15.06;72.35;96872.63;1695192;83;21457;-83
2022/07/13 03:43:28;;;;;;;2.00;1.17;;;;;;;15.05;72.58;96869.21;1679496;84;21035;-83
2022/07/13 03:45:54;;;;;;;3.35;1.45;;;;;;;15.04;72.61;96864.18;1672299;83;20965;-83
2022/07/13 03:48:19;;;;;;;1.98;1.32;;;;;;;15.02;72.78;96865.69;1676339;84;20964;-84
2022/07/13 03:50:45;;;;;;;2.15;1.27;;;;;;;15.00;73.05;96868.50;1683899;83;21019;-83
2022/07/13 03:53:11;;;;;;;3.12;1.72;;;;;;;15.01;72.98;96867.50;1670702;83;21395;-83
2022/07/13 03:55:39;;;;;;;2.40;1.12;;;;;;;15.01;72.90;96864.88;1676225;83;21063;-83
2022/07/13 03:58:05;;;;;;;2.47;1.40;;;;;;;15.01;72.98;96864.08;1671948;83;20984;-83
2022/07/13 04:00:31;;;;;;;2.80;1.47;;;;;;;15.00;73.46;96872.42;1678579;84;20971;-83
2022/07/13 04:02:57;;;;;;;4.03;1.30;;;;;;;15.00;73.42;96872.42;1689924;83;21366;-83
2022/07/13 04:05:24;;;;;;;5.67;1.35;;;;;;;15.04;73.67;96873.34;1676892;83;21007;-84
2022/07/13 04:07:50;;;;;;;3.08;1.50;;;;;;;15.07;73.75;96871.62;1694537;84;20968;-82
2022/07/13 04:10:19;;;;;;;2.37;1.40;;;;;;;15.07;73.64;96865.89;1669752;83;20948;-82
2022/07/13 04:12:46;;;;;;;6.00;1.50;;;;;;;15.10;73.57;96865.99;1678072;83;21040;-82
2022/07/13 04:15:11;;;;;;;2.85;1.20;;;;;;;15.15;73.94;96864.41;1685904;83;21054;-82
2022/07/13 04:17:39;;;;;;;2.72;1.00;;;;;;;15.22;74.06;96867.84;1676915;84;20970;-82
2022/07/13 04:20:06;;;;;;;3.58;1.40;;;;;;;15.27;74.06;96865.92;1672449;83;20996;-82
2022/07/13 04:22:32;;;;;;;2.70;1.20;;;;;;;15.31;73.98;96867.97;1690095;84;20979;-82
2022/07/13 04:24:58;;;;;;;3.50;1.12;;;;;;;15.32;73.79;96870.08;1674084;83;21035;-83
2022/07/13 04:27:24;;;;;;;2.42;1.40;;;;;;;15.36;74.23;96869.98;1697408;84;20960;-83
2022/07/13 04:29:49;;;;;;;2.92;1.50;;;;;;;15.39;74.07;96872.69;1680170;83;21350;-83
2022/07/13 04:32:15;;;;;;;2.80;1.17;;;;;;;15.41;74.10;96877.22;1688628;83;20999;-83
2022/07/13 04:34:41;;;;;;;4.87;1.50;;;;;;;15.42;73.87;96873.60;1669460;84;21007;-83
2022/07/13 04:37:06;;;;;;;3.27;1.45;;;;;;;15.45;74.39;96872.69;1682274;83;21039;-83
2022/07/13 04:39:32;;;;;;;3.12;1.70;;;;;;;15.50;74.46;96867.67;1697602;84;21083;-83
2022/07/13 04:41:59;;;;;;;4.33;1.65;;;;;;;15.52;74.28;96874.83;1717668;83;20988;-84
2022/07/13 04:44:26;;;;;;;1.87;1.25;;;;;;;15.54;74.35;96881.98;1697499;83;21438;-83
2022/07/13 04:46:55;;;;;;;2.77;1.10;;;;;;;15.55;74.47;96878.34;1674414;84;21003;-82
2022/07/13 04:49:22;;;;;;;4.33;2.05;;;;;;;15.57;74.22;96882.08;1686864;84;21015;-82
2022/07/13 04:51:48;;;;;;;2.33;1.10;;;;;;;15.58;74.32;96889.73;1679542;83;20975;-82
2022/07/13 04:54:18;;;;;;;5.62;1.40;;;;;;;15.56;74.49;96893.06;1683368;83;21025;-82
2022/07/13 04:56:44;;;;;;;5.45;1.60;;;;;;;15.56;74.66;96890.94;1696107;83;21007;-83
2022/07/13 04:59:10;;;;;;;1.50;0.98;;;;;;;15.52;73.88;96895.78;1686437;84;21025;-84
2022/07/13 05:01:36;;;;;;;2.27;1.40;;;;;;;15.52;74.22;96888.43;1685850;84;21354;-83
2022/07/13 05:04:02;;;;;;;5.35;1.47;;;;;;;15.55;74.33;96890.64;1685926;83;20976;-83
2022/07/13 05:06:28;;;;;;;2.22;1.30;;;;;;;15.56;74.73;96888.33;1669943;83;20932;-83
2022/07/13 05:08:54;;;;;;;4.90;1.60;;;;;;;15.61;74.61;96892.48;1672523;83;21326;-83
2022/07/13 05:11:19;;;;;;;3.10;1.47;;;;;;;15.60;74.69;96895.60;1696509;83;20967;-83
2022/07/13 05:13:45;;;;;;;1.92;1.27;;;;;;;15.57;74.69;96887.31;1697926;84;21026;-82
2022/07/13 05:16:11;;;;;;;3.30;1.65;;;;;;;15.60;74.79;96890.87;1685516;83;21055;-82
2022/07/13 05:18:37;;;;;;;2.77;1.45;;;;;;;15.57;74.88;96889.94;1687731;84;21010;-81
2022/07/13 05:21:03;;;;;;;2.98;1.32;;;;;;;15.56;74.46;96882.58;1687841;83;21002;-81
2022/07/13 05:23:28;;;;;;;2.50;1.27;;;;;;;15.59;74.46;96882.70;1696092;83;21382;-82
2022/07/13 05:25:54;;;;;;;2.95;1.42;;;;;;;15.63;74.06;96881.83;1689247;83;21013;-82
2022/07/13 05:28:20;;;;;;;2.30;1.22;;;;;;;15.67;74.24;96881.72;1690702;83;21026;-82
2022/07/13 05:30:46;;;;;;;2.42;1.27;;;;;;;15.71;74.17;96886.85;1692544;83;21001;-82
2022/07/13 05:33:14;;;;;;;3.95;1.55;;;;;;;15.72;74.07;96897.63;1683014;83;21018;-82
2022/07/13 05:35:40;;;;;;;2.25;1.55;;;;;;;15.74;74.24;96889.87;1644765;86;20979;-83
2022/07/13 05:38:06;;;;;;;2.37;1.20;;;;;;;15.78;74.17;96883.72;1669804;83;21007;-84
2022/07/13 05:40:32;;;;;;;3.65;1.60;;;;;;;15.79;74.10;96882.23;1692143;83;21043;-83
2022/07/13 05:42:58;;;;;;;1.98;1.20;;;;;;;15.84;74.20;96885.05;1678842;83;20992;-83
2022/07/13 05:45:25;;;;;;;1.92;1.30;;;;;;;15.90;74.40;96880.80;1688616;83;21336;-83
2022/07/13 05:47:51;;;;;;;2.70;1.50;;;;;;;15.96;74.27;96874.77;1674816;84;20970;-83
2022/07/13 05:50:16;;;;;;;4.08;1.52;;;;;;;16.02;74.35;96880.99;1670754;83;20948;-83
2022/07/13 05:52:42;;;;;;;2.72;1.70;;;;;;;16.04;74.33;96871.91;1683425;83;20991;-83
2022/07/13 05:55:09;;;;;;;2.58;1.60;;;;;;;16.07;74.39;96878.05;1685732;83;21416;-83
2022/07/13 05:57:36;;;;;;;2.37;1.60;;;;;;;16.12;73.78;96880.09;1697781;83;21035;-82
2022/07/13 06:00:05;;;;;;;2.47;1.60;;;;;;;16.15;74.08;96884.41;1696851;83;20994;-84
2022/07/13 06:02:31;;;;;;;4.87;1.40;;;;;;;16.20;73.96;96875.92;1674861;83;20942;-83
2022/07/13 06:04:57;;;;;;;2.90;1.40;;;;;;;16.26;74.17;96882.95;1680731;83;20974;-83
2022/07/13 06:07:23;;;;;;;2.37;1.95;;;;;;;16.32;74.19;96886.59;1689744;84;20968;-83
2022/07/13 06:09:49;;;;;;;2.55;1.62;;;;;;;16.38;74.05;96878.70;1696097;84;20932;-83
2022/07/13 06:12:15;;;;;;;2.87;1.50;;;;;;;16.43;73.63;96881.53;1675378;83;21326;-83
2022/07/13 06:14:41;;;;;;;2.33;1.80;;;;;;;16.46;73.71;96877.18;1693329;83;20988;-84
2022/07/13 06:17:06;;;;;;;3.70;1.60;;;;;;;16.51;74.01;96887.05;1677776;83;21031;-84
2022/07/13 06:19:33;;;;;;;3.92;1.70;;;;;;;16.53;73.76;96870.59;1686275;84;21034;-83
2022/07/13 06:21:59;;;;;;;3.40;2.00;;;;;;;16.59;73.59;96880.24;1677371;83;20985;-83
2022/07/13 06:24:25;;;;;;;2.80;1.65;;;;;;;16.67;73.82;96880.56;1669964;83;21331;-84
2022/07/13 06:26:51;;;;;;;2.83;2.00;;;;;;;16.73;73.87;96873.97;1683964;82;21026;-84
2022/07/13 06:29:17;;;;;;;4.70;1.52;;;;;;;16.82;74.17;96881.11;1693080;82;21353;-83
2022/07/13 06:31:43;;;;;;;1.98;1.42;;;;;;;16.89;72.89;96881.07;1703919;84;20958;-84
2022/07/13 06:34:08;;;;;;;2.92;2.15;;;;;;;16.95;72.83;96871.06;1687925;82;20935;-84
2022/07/13 06:36:34;;;;;;;3.55;1.87;;;;;;;17.01;73.29;96872.84;1709057;82;21374;-83
2022/07/13 06:39:01;;;;;;;2.00;1.77;;;;;;;17.10;73.17;96879.47;1687214;82;21049;-83
2022/07/13 06:41:27;;;;;;;3.80;1.60;;;;;;;17.12;72.97;96884.00;1689759;82;20990;-83
2022/07/13 06:43:54;;;;;;;3.20;1.50;;;;;;;17.15;72.12;96883.58;1687100;82;20987;-83
2022/07/13 06:46:20;;;;;;;2.45;1.32;;;;;;;17.22;72.08;96888.27;1710139;82;20988;-83
2022/07/13 06:48:46;;;;;;;3.10;1.10;;;;;;;17.28;71.84;96901.08;1687463;84;21433;-84
2022/07/13 06:51:12;;;;;;;1.92;1.30;;;;;;;17.37;71.54;96884.84;1687354;82;21006;-84
2022/07/13 06:53:37;;;;;;;2.17;1.30;;;;;;;17.47;71.85;96892.27;1712979;82;21045;-85
2022/07/13 06:56:03;;;;;;;3.25;1.32;;;;;;;17.57;71.59;96882.58;1715634;82;21016;-83
2022/07/13 06:58:29;;;;;;;3.87;1.20;;;;;;;17.66;71.57;96883.95;1715945;84;21075;-84
2022/07/13 07:00:55;;;;;;;4.33;1.47;;;;;;;17.74;70.60;96890.30;1715878;82;21031;-84
2022/07/13 07:03:20;;;;;;;2.65;1.62;;;;;;;17.83;70.64;96869.28;1695889;84;21006;-82
2022/07/13 07:05:47;;;;;;;3.90;1.55;;;;;;;17.83;70.64;96869.28;1687254;84;20987;-83
2022/07/13 07:08:13;;;;;;;2.72;1.70;;;;;;;18.00;71.07;96872.97;1704537;84;20946;-82
2022/07/13 07:10:39;;;;;;;2.98;1.20;;;;;;;18.12;70.87;96877.02;1710033;82;20943;-82
2022/07/13 07:13:05;;;;;;;3.08;1.45;;;;;;;18.23;69.88;96878.94;1701297;82;21678;-82
2022/07/13 07:15:31;;;;;;;4.60;1.45;;;;;;;18.32;69.00;96880.76;1700537;84;21410;-84
2022/07/13 07:17:56;;;;;;;4.08;1.65;;;;;;;18.34;68.85;96886.59;1707387;82;20974;-85
2022/07/13 07:20:22;;;;;;;4.75;2.00;;;;;;;18.39;68.33;96895.17;1697935;82;20959;-84
2022/07/13 07:22:48;;;;;;;4.33;1.80;;;;;;;18.37;67.67;96881.41;1710114;84;21385;-84
2022/07/13 07:25:14;;;;;;;2.58;1.40;;;;;;;18.38;67.71;96881.70;1699702;82;20996;-84
2022/07/13 07:27:40;;;;;;;2.47;1.20;;;;;;;18.35;68.11;96880.83;1672956;83;21044;-84
2022/07/13 07:30:07;;;;;;;3.65;1.62;;;;;;;18.40;68.23;96877.85;1708986;83;21042;-83
2022/07/13 07:32:33;;;;;;;3.87;1.85;;;;;;;18.50;68.61;96878.13;1666124;83;21042;-84
2022/07/13 07:34:58;;;;;;;2.27;1.40;;;;;;;18.56;68.06;96881.22;1678164;83;21429;-84
2022/07/13 07:37:24;;;;;;;5.12;1.40;;;;;;;18.67;66.99;96883.63;1697758;84;20940;-81
2022/07/13 07:39:50;;;;;;;2.42;1.45;;;;;;;18.71;68.42;96893.20;1697464;83;20999;-83
2022/07/13 07:42:16;;;;;;;2.98;1.57;;;;;;;18.79;68.15;96888.97;1697781;84;20976;-83
2022/07/13 07:44:42;;;;;;;2.20;1.30;;;;;;;18.85;67.54;96901.24;1685035;83;21383;-82
2022/07/13 07:47:08;;;;;;;2.08;1.17;;;;;;;18.85;67.50;96897.30;1669507;84;21019;-84
2022/07/13 07:49:35;;;;;;;3.00;1.00;;;;;;;18.92;66.28;96897.23;1669725;84;21040;-84
2022/07/13 07:52:01;;;;;;;1.72;0.95;;;;;;;18.93;66.93;96901.47;1697298;83;21007;-84
2022/07/13 07:54:27;;;;;;;2.30;1.00;;;;;;;19.00;66.19;96901.66;1697774;84;21023;-83
2022/07/13 07:56:52;;;;;;;2.40;1.30;;;;;;;19.08;66.68;96892.67;1692091;83;21454;-82
2022/07/13 07:59:18;;;;;;;2.60;1.20;;;;;;;19.10;66.94;96898.52;1683474;83;20971;-84
2022/07/13 08:01:44;;;;;;;4.87;1.30;;;;;;;19.09;66.71;96888.49;1697493;84;20992;-84
2022/07/13 08:04:10;;;;;;;1.98;1.10;;;;;;;19.20;66.68;96893.53;1689347;83;21327;-82
2022/07/13 08:06:36;;;;;;;2.17;1.15;;;;;;;19.23;65.84;96880.42;1669653;84;20980;-82
2022/07/13 08:09:02;;;;;;;2.65;1.30;;;;;;;19.31;66.54;96888.80;1675008;83;20983;-82
2022/07/13 08:11:28;;;;;;;2.42;1.00;;;;;;;19.34;65.81;96889.66;1686374;84;21067;-81
2022/07/13 08:13:54;;;;;;;1.82;1.05;;;;;;;19.43;65.83;96890.16;1669537;83;20995;-82
2022/07/13 08:16:19;;;;;;;2.08;0.90;;;;;;;19.43;65.94;96883.56;1675547;83;20920;-82
2022/07/13 08:18:45;;;;;;;2.35;1.20;;;;;;;19.47;65.33;96885.52;1683596;83;20983;-81
2022/07/13 08:21:12;;;;;;;2.00;1.20;;;;;;;19.52;65.87;96887.98;1691865;83;20964;-82
2022/07/13 08:23:54;;;;;;;1.72;1.10;;;;;;;19.59;65.25;96884.78;1669775;84;21394;-82
2022/07/13 08:26:23;;;;;;;1.40;0.85;;;;;;;19.62;66.17;96884.33;1676522;82;21121;-82
2022/07/13 08:28:50;;;;;;;1.55;0.93;;;;;;;19.83;65.99;96883.77;1704966;82;21397;-80
2022/07/13 08:31:16;;;;;;;2.20;0.80;;;;;;;20.04;65.36;96871.88;1695321;82;20975;-80
2022/07/13 08:39:11;;;;;;;1.62;0.90;;;;;;;20.57;65.25;96873.58;1715876;82;21433;-81
2022/07/13 08:41:39;;;;;;;2.98;1.30;;;;;;;20.78;64.32;96873.46;1715439;82;21009;-81
2022/07/13 08:44:05;;;;;;;1.30;0.80;;;;;;;20.95;63.64;96873.80;1714259;82;20997;-81
2022/07/13 08:46:33;;;;;;;3.67;1.10;;;;;;;21.15;63.54;96868.61;1713236;84;20951;-80
2022/07/13 08:48:59;;;;;;;2.05;0.70;;;;;;;21.37;64.13;96869.59;1715813;84;21006;-80
2022/07/13 08:51:26;;;;;;;3.27;0.75;;;;;;;21.32;61.81;96874.80;1714419;82;20947;-80
2022/07/13 08:53:52;;;;;;;1.90;1.12;;;;;;;21.40;59.56;96873.07;1699972;84;21020;-80
2022/07/13 08:56:18;;;;;;;1.80;1.00;;;;;;;21.46;61.39;96868.66;1698451;82;21102;-80
2022/07/13 08:58:44;;;;;;;1.80;1.10;;;;;;;21.54;61.16;96879.66;1712352;82;21018;-80
2022/07/13 09:01:10;;;;;;;1.30;0.80;;;;;;;21.49;58.83;96872.98;1695551;82;21009;-80
2022/07/13 09:03:36;;;;;;;2.25;0.70;;;;;;;21.47;60.64;96881.64;1695954;82;20984;-80
2022/07/13 09:06:03;;;;;;;1.80;0.70;;;;;;;21.49;60.63;96872.98;1712386;82;20946;-80
2022/07/13 09:08:29;;;;;;;1.40;0.80;;;;;;;21.68;59.50;96872.75;1709091;84;21038;-80
2022/07/13 09:11:00;;;;;;;2.65;0.93;;;;;;;21.90;61.49;96868.85;1687321;82;20993;-80
2022/07/13 09:13:38;;;;;;;;;;;;;;;21.90;58.94;96880.23;1717949;82;21065;-80
2022/07/13 09:16:24;;;;;;;1.30;0.70;;;;;;;21.83;59.87;96878.28;1726668;82;20091;-84
2022/07/13 09:18:53;;;;;;;1.98;0.90;;;;;;;21.68;59.33;96871.42;1665965;84;20981;-80
2022/07/13 09:21:20;;;;;;;1.32;0.70;;;;;;;21.85;60.27;96875.67;1716020;84;21008;-82
2022/07/13 09:23:55;;;;;;;1.32;0.60;;;;;;;21.98;60.49;96865.29;1715905;82;21010;-83
2022/07/13 09:26:21;;;;;;;2.02;1.20;;;;;;;21.95;59.79;96857.02;1700301;82;21020;-80
2022/07/13 09:28:51;;;;;;;1.55;0.60;;;;;;;22.03;58.06;96871.97;1711293;82;21022;-80
2022/07/13 09:31:18;;;;;;;1.40;0.68;;;;;;;22.16;57.94;96873.52;1716081;82;20986;-80
2022/07/13 09:33:46;;;;;;;0.70;0.60;;;;;;;22.18;54.67;96872.75;1715804;82;21026;-83
2022/07/13 09:36:20;;;;;;;1.35;0.62;;;;;;;22.18;56.08;96862.16;1704342;82;21043;-82
2022/07/13 09:38:49;;;;;;;0.75;0.50;;;;;;;22.29;57.23;96872.34;1687378;84;21006;-82
2022/07/13 09:41:20;;;;;;;3.58;0.80;;;;;;;22.43;56.19;96868.30;1674268;84;21071;-81
2022/07/13 09:46:55;;;;;;;1.75;0.90;;;;;;;22.40;54.88;96872.77;1707542;82;21412;-81
2022/07/13 09:49:41;;;;;;;2.17;0.68;;;;;;;22.51;56.66;96869.22;1716006;84;20951;-81
2022/07/13 09:52:16;;;;;;;0.80;0.55;;;;;;;22.66;56.24;96865.45;1705899;82;21022;-83
2022/07/13 09:54:43;;;;;;;1.72;0.55;;;;;;;22.88;57.60;96864.66;1716030;82;21058;-81
2022/07/13 09:57:13;;;;;;;2.10;1.00;;;;;;;22.87;54.87;96878.95;1689219;82;21054;-81
2022/07/13 09:59:43;;;;;;;0.70;0.40;;;;;;;22.60;55.27;96881.50;1673314;84;20980;-83
2022/07/13 10:02:09;;;;;;;3.22;0.70;;;;;;;22.64;54.11;96870.19;1702273;82;21008;-83
2022/07/13 10:04:37;;;;;;;1.40;0.72;;;;;;;22.76;53.74;96864.75;1712283;82;21018;-83
2022/07/13 10:07:04;;;;;;;1.95;0.80;;;;;;;22.72;54.83;96872.92;1687212;82;21033;-83
2022/07/13 10:11:56;;;;;;;1.82;0.50;;;;;;;22.76;54.69;96864.75;1676353;84;21038;-80
2022/07/13 10:14:22;;;;;;;1.20;0.65;;;;;;;22.88;53.61;96865.45;1705689;84;20990;-80
2022/07/13 10:16:47;;;;;;;2.00;0.70;;;;;;;22.76;53.39;96869.52;1715928;82;20998;-80
2022/07/13 10:19:13;;;;;;;1.15;0.60;;;;;;;22.77;52.13;96854.42;1716048;84;21285;-83
2022/07/13 10:21:48;;;;;;;1.22;0.60;;;;;;;22.83;53.60;96861.44;1715751;82;21117;-84
2022/07/13 10:24:15;;;;;;;1.60;0.60;;;;;;;22.78;54.04;96874.60;1715878;84;21373;-83
2022/07/13 10:26:41;;;;;;;1.32;0.50;;;;;;;22.88;53.92;96869.95;1689088;82;21035;-83
2022/07/13 10:29:09;;;;;;;0.90;0.55;;;;;;;23.02;54.28;96861.91;1623660;86;21011;-83
2022/07/13 10:31:36;;;;;;;1.77;0.70;;;;;;;23.15;54.34;96877.95;1625765;85;21013;-83
2022/07/13 10:34:03;;;;;;;1.22;0.50;;;;;;;23.30;53.33;96873.60;1693050;83;20970;-83
2022/07/13 10:36:56;;;;;;;1.05;0.65;;;;;;;23.37;51.33;96868.08;1690606;84;21368;-80
2022/07/13 10:39:27;;;;;;;1.25;0.62;;;;;;;23.45;53.21;96872.15;1619394;87;21003;-81
2022/07/13 10:42:10;;;;;;;1.72;0.57;;;;;;;23.43;52.54;96877.70;1652077;87;21030;-81
2022/07/13 10:44:43;;;;;;;1.42;0.50;;;;;;;23.52;52.89;96882.81;1693048;83;21386;-81
2022/07/13 10:47:11;;;;;;;1.30;0.57;;;;;;;23.55;51.79;96876.20;1684233;84;21002;-81
2022/07/13 10:49:46;;;;;;;1.65;0.50;;;;;;;23.53;52.75;96884.41;1697656;83;20955;-81
2022/07/13 10:52:27;;;;;;;1.60;0.70;;;;;;;23.60;51.43;96890.36;1686909;84;21070;-83
2022/07/13 10:55:09;;;;;;;3.10;0.82;;;;;;;23.64;51.18;96883.48;1686060;83;21410;-83
2022/07/13 10:57:38;;;;;;;0.90;0.57;;;;;;;23.77;51.89;96874.84;1683647;83;20971;-80
2022/07/13 11:00:22;;;;;;;0.65;0.45;;;;;;;23.95;51.03;96883.20;1621099;87;20967;-83
2022/07/13 11:02:51;;;;;;;;;;;;;;;24.10;50.53;96882.52;1672250;83;20984;-82
2022/07/13 11:05:24;;;;;;;1.40;0.70;;;;;;;24.28;49.49;96873.33;1672106;83;20109;-83
2022/07/13 11:07:50;;;;;;;1.75;0.80;;;;;;;24.34;49.26;96874.18;1669710;84;21020;-83
2022/07/13 11:10:32;;;;;;;2.47;0.78;;;;;;;24.38;48.12;96881.90;1681782;84;21047;-82
2022/07/13 11:13:04;;;;;;;0.82;0.40;;;;;;;24.09;47.98;96882.25;1678116;84;20991;-83
2022/07/13 11:15:52;;;;;;;3.62;0.70;;;;;;;24.08;48.53;96881.15;1697628;84;20992;-81
2022/07/13 11:18:29;;;;;;;1.10;0.85;;;;;;;23.83;48.88;96877.80;1677818;83;20978;-83
2022/07/13 11:21:06;;;;;;;0.98;0.50;;;;;;;23.57;50.04;96888.19;1680434;84;20987;-84
2022/07/13 11:26:43;;;;;;;2.55;0.88;;;;;;;23.70;49.40;96881.67;1670227;83;21108;-83
2022/07/13 11:29:45;;;;;;;2.33;0.95;;;;;;;23.78;49.76;96869.28;1683305;83;20979;-83
2022/07/13 11:32:10;;;;;;;1.27;0.70;;;;;;;23.74;50.30;96875.32;1673486;83;20993;-83
2022/07/13 11:34:36;;;;;;;0.70;0.45;;;;;;;23.80;51.77;96864.52;1673874;84;21402;-80
2022/07/13 11:37:02;;;;;;;1.07;0.62;;;;;;;23.83;49.84;96878.59;1677344;83;22169;-83
2022/07/13 11:39:31;;;;;;;1.20;0.70;;;;;;;23.97;51.57;96868.35;1675720;83;20965;-83
2022/07/13 11:41:59;;;;;;;1.57;0.70;;;;;;;24.15;51.47;96865.81;1675580;83;21366;-82
2022/07/13 11:44:30;;;;;;;2.05;0.55;;;;;;;24.33;50.32;96863.29;1684610;84;21000;-81
2022/07/13 11:46:59;;;;;;;1.67;0.60;;;;;;;24.36;48.68;96855.60;1692168;83;21079;-83
2022/07/13 11:49:27;;;;;;;1.32;0.45;;;;;;;24.41;49.33;96851.66;1669887;84;20967;-83